createdAt,value
2022-11-02T00:04:46.703Z,43.42
2022-11-02T00:09:48.531Z,43.52
2022-11-02T00:14:50.435Z,43.33
2022-11-02T00:19:52.261Z,43.52
2022-11-02T00:24:53.942Z,43.58
2022-11-02T00:29:55.816Z,43.61
2022-11-02T00:34:57.774Z,43.28
2022-11-02T00:39:59.528Z,43.39
2022-11-02T00:45:01.271Z,43.61
2022-11-02T00:50:03.504Z,43.61
2022-11-02T00:55:05.600Z,43.83
2022-11-02T01:00:10.116Z,43.69
2022-11-02T01:05:12.460Z,43.74
2022-11-02T01:10:14.066Z,43.29
2022-11-02T01:15:15.819Z,43.43
2022-11-02T01:20:17.632Z,43.71
2022-11-02T01:25:19.355Z,43.43
2022-11-02T01:30:21.133Z,43.42
2022-11-02T01:35:23.153Z,43.39
2022-11-02T01:40:24.875Z,43.55
2022-11-02T01:45:27.720Z,43.74
2022-11-02T01:50:29.532Z,43.60
2022-11-02T01:55:34.373Z,43.44
2022-11-02T02:00:37.711Z,43.66
2022-11-02T02:05:46.939Z,43.67
2022-11-02T02:10:48.626Z,43.59
2022-11-02T02:15:55.814Z,43.52
2022-11-02T02:21:01.389Z,43.74
2022-11-02T02:26:15.108Z,43.72
2022-11-02T02:31:26.147Z,43.92
2022-11-02T02:37:00.844Z,43.91
2022-11-02T02:42:12.615Z,43.65
2022-11-02T02:47:18.677Z,43.86
2022-11-02T02:52:22.371Z,43.58
2022-11-02T02:57:27.331Z,43.51
2022-11-02T03:02:33.122Z,43.44
2022-11-02T03:07:35.059Z,43.89
2022-11-02T03:12:50.854Z,43.64
2022-11-02T03:18:34.140Z,43.91
2022-11-02T03:23:50.562Z,43.82
2022-11-02T03:29:01.018Z,43.63
2022-11-02T03:34:09.078Z,43.72
2022-11-02T03:39:14.035Z,43.75
2022-11-02T03:44:21.202Z,43.95
2022-11-02T03:49:24.091Z,43.48
2022-11-02T03:54:49.151Z,43.74
2022-11-02T03:59:50.916Z,43.57
2022-11-02T04:04:53.339Z,43.56
2022-11-02T04:09:55.070Z,43.74
2022-11-02T04:14:57.177Z,43.89
2022-11-02T04:19:58.906Z,43.57
2022-11-02T04:25:15.929Z,43.78
2022-11-02T04:30:20.523Z,43.73
2022-11-02T04:35:22.290Z,43.76
2022-11-02T04:40:24.038Z,43.83
2022-11-02T04:45:26.158Z,43.70
2022-11-02T04:50:27.798Z,43.88
2022-11-02T04:55:30.112Z,43.26
2022-11-02T05:00:31.811Z,43.59
2022-11-02T05:05:33.421Z,43.28
2022-11-02T05:10:35.164Z,43.48
2022-11-02T05:15:39.287Z,43.33
2022-11-02T05:20:40.961Z,43.32
2022-11-02T05:25:42.626Z,43.25
2022-11-02T05:30:44.403Z,43.45
2022-11-02T05:35:46.412Z,43.56
2022-11-02T05:40:59.201Z,43.49
2022-11-02T05:46:03.023Z,43.48
2022-11-02T05:51:04.975Z,43.34
2022-11-02T05:56:08.477Z,43.48
2022-11-02T06:01:11.112Z,43.53
2022-11-02T06:06:13.125Z,43.29
2022-11-02T06:11:15.586Z,43.41
2022-11-02T06:16:22.671Z,43.54
2022-11-02T06:21:25.048Z,43.12
2022-11-02T06:26:26.834Z,43.47
2022-11-02T06:31:28.518Z,43.26
2022-11-02T06:36:31.160Z,43.38
2022-11-02T06:41:33.199Z,43.37
2022-11-02T06:46:34.915Z,43.51
2022-11-02T06:51:36.614Z,43.27
2022-11-02T06:56:38.276Z,43.18
2022-11-02T07:01:40.017Z,43.52
2022-11-02T07:06:42.100Z,42.22
2022-11-02T07:11:43.825Z,42.23
2022-11-02T07:16:45.528Z,41.94
2022-11-02T07:21:47.916Z,42.03
2022-11-02T07:26:50.390Z,42.07
2022-11-02T07:31:52.336Z,42.23
2022-11-02T07:36:55.620Z,42.47
2022-11-02T07:41:57.507Z,42.64
2022-11-02T07:46:59.665Z,42.50
2022-11-02T07:52:01.322Z,42.32
2022-11-02T07:57:03.202Z,42.71
2022-11-02T08:02:05.059Z,41.03
2022-11-02T08:07:06.952Z,41.49
2022-11-02T08:12:08.633Z,41.14
2022-11-02T08:17:10.253Z,40.84
2022-11-02T08:22:11.943Z,40.73
2022-11-02T08:27:13.685Z,40.97
2022-11-02T08:32:15.419Z,40.50
2022-11-02T08:37:17.125Z,40.31
2022-11-02T08:42:18.893Z,40.55
2022-11-02T08:47:20.651Z,40.22
2022-11-02T08:52:22.277Z,40.10
2022-11-02T08:57:23.923Z,40.13
2022-11-02T09:02:25.725Z,39.84
2022-11-02T09:07:27.493Z,40.27
2022-11-02T09:12:29.166Z,39.96
2022-11-02T09:17:30.851Z,40.42
2022-11-02T09:22:32.570Z,39.89
2022-11-02T09:27:34.195Z,40.38
2022-11-02T09:32:36.428Z,40.66
2022-11-02T09:37:38.396Z,40.76
2022-11-02T09:42:54.898Z,40.79
2022-11-02T09:48:17.769Z,40.86
2022-11-02T09:53:27.060Z,41.41
2022-11-02T09:58:38.048Z,41.09
2022-11-02T10:04:03.015Z,41.26
2022-11-02T10:09:25.334Z,41.49
2022-11-02T10:14:39.768Z,41.80
2022-11-02T10:19:48.454Z,41.44
2022-11-02T10:24:53.494Z,41.39
2022-11-02T10:30:20.992Z,41.53
2022-11-02T10:36:04.684Z,41.93
2022-11-02T10:41:28.020Z,41.72
2022-11-02T10:46:55.740Z,42.05
2022-11-02T10:51:57.742Z,41.96
2022-11-02T10:57:00.228Z,42.34
2022-11-02T11:02:05.241Z,41.73
2022-11-02T11:07:14.275Z,41.81
2022-11-02T11:12:22.465Z,42.15
2022-11-02T11:23:20.677Z,42.18
2022-11-02T11:28:26.933Z,42.00
2022-11-02T11:33:30.443Z,42.00
2022-11-02T11:38:32.210Z,42.44
2022-11-02T11:43:38.587Z,42.30
2022-11-02T11:48:49.161Z,42.20
2022-11-02T11:54:24.667Z,42.39
2022-11-02T11:59:44.218Z,42.06
2022-11-02T12:04:45.970Z,42.05
2022-11-02T12:10:00.001Z,42.21
2022-11-02T12:15:33.527Z,42.17
2022-11-02T12:21:03.567Z,42.22
2022-11-02T12:26:18.272Z,42.55
2022-11-02T12:31:36.599Z,42.54
2022-11-02T12:37:27.435Z,42.53
2022-11-02T12:42:24.153Z,42.13
2022-11-02T12:48:05.596Z,42.47
2022-11-02T12:53:19.732Z,42.48
2022-11-02T12:58:23.064Z,42.14
2022-11-02T13:04:01.236Z,42.39
2022-11-02T13:09:13.310Z,42.27
2022-11-02T13:14:21.802Z,42.60
2022-11-02T13:19:33.877Z,42.30
2022-11-02T13:24:42.511Z,42.51
2022-11-02T13:29:51.016Z,42.40
2022-11-02T13:34:55.142Z,42.35
2022-11-02T13:40:02.207Z,42.44
2022-11-02T13:45:27.684Z,42.22
2022-11-02T13:50:33.093Z,42.45
2022-11-02T13:55:44.581Z,42.42
2022-11-02T14:00:47.798Z,42.58
2022-11-02T14:06:09.500Z,42.60
2022-11-02T14:11:11.533Z,42.33
2022-11-02T14:16:13.328Z,42.33
2022-11-02T14:21:59.228Z,40.74
2022-11-02T14:27:04.854Z,40.23
2022-11-02T14:32:35.800Z,39.97
2022-11-02T14:38:11.320Z,39.82
2022-11-02T14:43:28.410Z,39.39
2022-11-02T14:48:31.822Z,39.33
2022-11-02T14:53:36.579Z,39.16
2022-11-02T14:58:41.716Z,39.32
2022-11-02T15:03:43.792Z,39.47
2022-11-02T15:08:50.285Z,39.18
2022-11-02T15:13:52.068Z,39.01
2022-11-02T15:18:55.976Z,39.17
2022-11-02T15:24:17.305Z,38.80
2022-11-02T15:29:33.259Z,38.98
2022-11-02T15:34:40.907Z,38.84
2022-11-02T15:39:51.909Z,38.83
2022-11-02T15:45:26.662Z,38.83
2022-11-02T15:50:44.451Z,38.56
2022-11-02T15:55:57.853Z,38.64
2022-11-02T16:01:29.432Z,38.96
2022-11-02T16:06:44.266Z,38.93
2022-11-02T16:12:00.266Z,38.95
2022-11-02T16:17:01.998Z,38.93
2022-11-02T16:22:09.438Z,38.48
2022-11-02T16:27:13.275Z,38.77
2022-11-02T16:32:15.375Z,39.36
2022-11-02T16:37:19.308Z,39.53
2022-11-02T16:42:24.964Z,39.26
2022-11-02T16:47:41.604Z,39.63
2022-11-02T16:52:53.993Z,39.74
2022-11-02T16:58:00.434Z,39.82
2022-11-02T17:03:10.896Z,40.14
2022-11-02T17:08:31.651Z,39.96
2022-11-02T17:13:37.116Z,39.94
2022-11-02T17:18:39.006Z,39.82
2022-11-02T17:23:46.069Z,40.08
2022-11-02T17:28:52.514Z,40.33
2022-11-02T17:33:55.027Z,40.32
2022-11-02T17:39:02.313Z,40.29
2022-11-02T17:44:04.548Z,40.23
2022-11-02T17:49:06.408Z,40.45
2022-11-02T17:54:13.014Z,40.82
2022-11-02T17:59:15.038Z,40.89
2022-11-02T18:04:16.801Z,40.86
2022-11-02T18:09:19.735Z,40.83
2022-11-02T18:14:21.646Z,40.69
2022-11-02T18:19:23.334Z,40.77
2022-11-02T18:24:25.024Z,40.80
2022-11-02T18:29:26.619Z,40.69
2022-11-02T18:34:28.316Z,40.93
2022-11-02T18:39:30.049Z,41.00
2022-11-02T18:44:32.359Z,41.06
2022-11-02T18:49:34.236Z,40.68
2022-11-02T18:54:36.099Z,40.97
2022-11-02T18:59:38.186Z,41.05
2022-11-02T19:04:40.751Z,41.30
2022-11-02T19:09:42.484Z,41.09
2022-11-02T19:14:46.937Z,41.05
2022-11-02T19:19:49.224Z,40.94
2022-11-02T19:24:51.312Z,41.26
2022-11-02T19:29:53.229Z,41.37
2022-11-02T19:34:55.198Z,41.28
2022-11-02T19:39:57.103Z,41.09
2022-11-02T19:44:58.898Z,41.23
2022-11-02T19:50:00.857Z,41.22
2022-11-02T19:55:02.932Z,41.29
2022-11-02T20:00:05.277Z,41.27
2022-11-02T20:05:07.461Z,41.20
2022-11-02T20:10:09.532Z,41.19
2022-11-02T20:15:12.267Z,40.92
2022-11-02T20:20:14.078Z,41.39
2022-11-02T20:25:15.855Z,40.98
2022-11-02T20:30:19.420Z,41.15
2022-11-02T20:35:25.602Z,41.10
2022-11-02T20:40:28.978Z,41.39
2022-11-02T20:45:31.070Z,41.43
2022-11-02T20:50:33.921Z,41.40
2022-11-02T20:55:35.645Z,41.40
2022-11-02T21:00:37.390Z,41.46
2022-11-02T21:05:39.367Z,41.46
2022-11-02T21:10:41.047Z,41.69
2022-11-02T21:15:43.080Z,41.58
2022-11-02T21:20:44.896Z,41.43
2022-11-02T21:25:46.668Z,41.46
2022-11-02T21:30:48.679Z,41.41
2022-11-02T21:35:50.363Z,41.61
2022-11-02T21:40:52.290Z,41.54
2022-11-02T21:45:58.683Z,41.42
2022-11-02T21:51:02.166Z,41.52
2022-11-02T21:56:06.900Z,41.35
2022-11-02T22:01:32.254Z,41.57
2022-11-02T22:06:34.976Z,41.46
2022-11-02T22:11:36.911Z,41.40
2022-11-02T22:16:43.535Z,41.61
2022-11-02T22:21:46.208Z,41.72
2022-11-02T22:26:50.263Z,41.74
2022-11-02T22:31:51.863Z,41.47
2022-11-02T22:37:13.659Z,41.56
2022-11-02T22:42:15.575Z,41.52
2022-11-02T22:47:17.409Z,41.51
2022-11-02T22:52:19.250Z,41.56
2022-11-02T22:57:21.150Z,41.74
2022-11-02T23:02:23.256Z,41.79
2022-11-02T23:07:25.153Z,41.92
2022-11-02T23:12:26.966Z,41.60
2022-11-02T23:17:28.808Z,41.54
2022-11-02T23:22:33.214Z,41.87
2022-11-02T23:28:04.384Z,41.93
2022-11-02T23:33:06.562Z,41.92
2022-11-02T23:38:08.540Z,41.58
2022-11-02T23:43:10.447Z,41.84
2022-11-02T23:48:12.328Z,42.02
2022-11-02T23:53:54.765Z,41.75
2022-11-02T23:59:06.733Z,42.16
